createdAt,value
2022-11-26T00:02:06.852Z,56.87
2022-11-26T00:04:53.532Z,56.76
2022-11-26T00:07:40.844Z,56.88
2022-11-26T00:10:30.415Z,56.94
2022-11-26T00:13:18.843Z,56.80
2022-11-26T00:16:04.949Z,56.89
2022-11-26T00:18:50.189Z,56.90
2022-11-26T00:21:39.207Z,56.98
2022-11-26T00:24:29.691Z,56.92
2022-11-26T00:27:15.345Z,57.02
2022-11-26T00:30:00.660Z,56.87
2022-11-26T00:32:46.503Z,56.93
2022-11-26T00:35:31.638Z,56.95
2022-11-26T00:38:20.462Z,56.98
2022-11-26T00:41:12.533Z,57.17
2022-11-26T00:43:58.835Z,57.28
2022-11-26T00:46:44.453Z,56.93
2022-11-26T00:49:29.618Z,57.18
2022-11-26T00:52:33.004Z,57.19
2022-11-26T00:55:26.685Z,57.11
2022-11-26T00:58:23.720Z,57.08
2022-11-26T01:01:12.422Z,57.20
2022-11-26T01:03:58.910Z,57.15
2022-11-26T01:06:45.152Z,57.29
2022-11-26T01:09:30.341Z,57.21
2022-11-26T01:12:15.664Z,57.16
2022-11-26T01:15:00.964Z,57.28
2022-11-26T01:17:47.428Z,57.22
2022-11-26T01:20:32.753Z,57.23
2022-11-26T01:23:19.639Z,57.28
2022-11-26T01:26:06.647Z,57.28
2022-11-26T01:28:52.349Z,57.30
2022-11-26T01:31:37.978Z,57.42
2022-11-26T01:34:23.010Z,57.31
2022-11-26T01:37:14.095Z,57.30
2022-11-26T01:39:59.716Z,57.30
2022-11-26T01:42:49.611Z,57.35
2022-11-26T01:45:34.872Z,57.37
2022-11-26T01:48:27.159Z,57.28
2022-11-26T01:51:13.546Z,57.26
2022-11-26T01:54:00.759Z,57.32
2022-11-26T01:56:52.492Z,57.38
2022-11-26T01:59:42.545Z,57.27
2022-11-26T02:02:29.833Z,57.41
2022-11-26T02:05:19.887Z,57.46
2022-11-26T02:08:05.897Z,57.36
2022-11-26T02:10:52.801Z,57.41
2022-11-26T02:13:38.337Z,57.32
2022-11-26T02:16:36.341Z,57.41
2022-11-26T02:19:42.225Z,57.38
2022-11-26T02:22:48.981Z,57.48
2022-11-26T02:25:43.714Z,57.47
2022-11-26T02:28:50.126Z,57.42
2022-11-26T02:31:57.295Z,57.43
2022-11-26T02:34:56.819Z,57.47
2022-11-26T02:38:10.482Z,57.59
2022-11-26T02:40:56.669Z,57.44
2022-11-26T02:43:42.455Z,57.51
2022-11-26T02:46:29.488Z,57.53
2022-11-26T02:49:20.259Z,57.33
2022-11-26T02:52:09.920Z,57.51
2022-11-26T02:54:56.697Z,57.47
2022-11-26T02:57:48.704Z,57.49
2022-11-26T03:00:38.077Z,57.51
2022-11-26T03:03:28.008Z,57.57
2022-11-26T03:06:15.073Z,57.62
2022-11-26T03:09:01.012Z,57.61
2022-11-26T03:11:46.537Z,57.62
2022-11-26T03:14:31.723Z,57.60
2022-11-26T03:17:17.856Z,57.60
2022-11-26T03:20:04.150Z,57.55
2022-11-26T03:22:49.840Z,57.62
2022-11-26T03:25:35.334Z,57.66
2022-11-26T03:28:20.884Z,57.67
2022-11-26T03:31:06.141Z,57.64
2022-11-26T03:33:51.544Z,57.61
2022-11-26T03:36:37.165Z,57.54
2022-11-26T03:39:22.608Z,57.89
2022-11-26T03:42:07.953Z,57.73
2022-11-26T03:44:53.431Z,57.74
2022-11-26T03:47:39.364Z,57.83
2022-11-26T03:50:24.975Z,57.83
2022-11-26T03:53:10.201Z,57.65
2022-11-26T03:55:56.143Z,57.62
2022-11-26T03:58:41.425Z,57.78
2022-11-26T04:01:26.897Z,57.82
2022-11-26T04:04:12.213Z,57.85
2022-11-26T04:06:57.497Z,57.99
2022-11-26T04:09:42.996Z,58.10
2022-11-26T04:12:28.308Z,58.04
2022-11-26T04:15:13.605Z,58.10
2022-11-26T04:17:58.907Z,57.93
2022-11-26T04:20:46.645Z,57.86
2022-11-26T04:23:35.646Z,57.74
2022-11-26T04:26:21.383Z,57.82
2022-11-26T04:29:06.669Z,57.97
2022-11-26T04:31:52.311Z,58.11
2022-11-26T04:34:37.869Z,58.13
2022-11-26T04:37:23.470Z,58.05
2022-11-26T04:40:09.446Z,58.17
2022-11-26T04:42:54.934Z,58.18
2022-11-26T04:45:40.393Z,58.36
2022-11-26T04:48:26.345Z,58.93
2022-11-26T04:51:11.686Z,59.35
2022-11-26T04:54:01.628Z,59.64
2022-11-26T04:56:48.410Z,59.87
2022-11-26T04:59:33.707Z,59.88
2022-11-26T05:02:19.233Z,59.68
2022-11-26T05:05:04.791Z,59.79
2022-11-26T05:07:50.300Z,59.73
2022-11-26T05:10:35.676Z,59.68
2022-11-26T05:13:21.346Z,59.87
2022-11-26T05:16:07.072Z,59.56
2022-11-26T05:18:52.696Z,59.56
2022-11-26T05:21:38.052Z,59.58
2022-11-26T05:24:23.584Z,59.39
2022-11-26T05:27:09.293Z,59.40
2022-11-26T05:29:54.646Z,58.97
2022-11-26T05:32:39.863Z,59.15
2022-11-26T05:35:25.080Z,59.31
2022-11-26T05:38:10.525Z,59.20
2022-11-26T05:40:55.903Z,59.45
2022-11-26T05:43:41.541Z,59.38
2022-11-26T05:46:26.841Z,59.31
2022-11-26T05:49:12.737Z,59.24
2022-11-26T05:51:59.622Z,59.03
2022-11-26T05:54:44.764Z,58.92
2022-11-26T05:57:30.175Z,58.71
2022-11-26T06:00:16.001Z,58.82
2022-11-26T06:03:01.482Z,58.67
2022-11-26T06:05:47.286Z,58.67
2022-11-26T06:08:32.828Z,58.44
2022-11-26T06:11:18.455Z,58.15
2022-11-26T06:14:03.791Z,58.26
2022-11-26T06:16:49.269Z,58.08
2022-11-26T06:19:34.433Z,57.92
2022-11-26T06:22:19.761Z,57.76
2022-11-26T06:25:06.791Z,57.83
2022-11-26T06:27:52.277Z,57.88
2022-11-26T06:30:37.526Z,58.04
2022-11-26T06:33:22.953Z,57.94
2022-11-26T06:36:10.492Z,57.92
2022-11-26T06:38:56.073Z,57.96
2022-11-26T06:41:41.876Z,57.90
2022-11-26T06:44:27.165Z,57.91
2022-11-26T06:47:13.604Z,57.73
2022-11-26T06:49:59.164Z,57.92
2022-11-26T06:52:44.589Z,57.75
2022-11-26T06:55:30.211Z,57.77
2022-11-26T06:58:15.378Z,57.75
2022-11-26T07:01:00.697Z,57.65
2022-11-26T07:03:46.819Z,57.39
2022-11-26T07:06:33.643Z,57.36
2022-11-26T07:09:18.940Z,57.29
2022-11-26T07:12:04.366Z,57.19
2022-11-26T07:14:50.018Z,57.08
2022-11-26T07:17:35.216Z,57.09
2022-11-26T07:20:20.661Z,57.03
2022-11-26T07:23:06.524Z,56.91
2022-11-26T07:25:51.745Z,56.80
2022-11-26T07:28:37.928Z,56.63
2022-11-26T07:31:24.119Z,56.50
2022-11-26T07:34:09.659Z,56.65
2022-11-26T07:36:58.061Z,56.82
2022-11-26T07:39:43.843Z,56.86
2022-11-26T07:42:33.444Z,56.89
2022-11-26T07:45:18.708Z,56.92
2022-11-26T07:48:04.736Z,57.08
2022-11-26T07:50:50.339Z,57.05
2022-11-26T07:53:35.923Z,57.06
2022-11-26T07:56:21.312Z,57.09
2022-11-26T08:01:52.274Z,57.25
2022-11-26T08:04:37.737Z,57.50
2022-11-26T08:07:28.958Z,58.73
2022-11-26T08:10:15.346Z,59.42
2022-11-26T08:13:00.722Z,58.74
2022-11-26T08:15:48.737Z,58.24
2022-11-26T08:18:34.301Z,57.75
2022-11-26T08:21:19.804Z,57.60
2022-11-26T08:24:06.038Z,57.40
2022-11-26T08:26:51.474Z,57.31
2022-11-26T08:29:37.178Z,57.35
2022-11-26T08:32:22.491Z,57.66
2022-11-26T08:35:08.165Z,58.03
2022-11-26T08:40:39.125Z,58.95
2022-11-26T08:46:29.765Z,59.60
2022-11-26T08:49:15.444Z,59.37
2022-11-26T08:52:00.690Z,59.48
2022-11-26T08:54:46.502Z,59.60
2022-11-26T08:57:31.860Z,59.52
2022-11-26T09:00:17.805Z,59.61
2022-11-26T09:03:03.019Z,59.14
2022-11-26T09:05:48.878Z,58.87
2022-11-26T09:08:58.040Z,58.84
2022-11-26T09:11:45.716Z,58.83
2022-11-26T09:14:37.971Z,59.27
2022-11-26T09:17:23.386Z,59.50
2022-11-26T09:20:08.883Z,59.11
2022-11-26T09:22:54.389Z,59.23
2022-11-26T09:25:40.152Z,59.35
2022-11-26T09:28:25.533Z,59.21
2022-11-26T09:31:10.785Z,59.18
2022-11-26T09:33:57.991Z,59.38
2022-11-26T09:36:43.263Z,59.48
2022-11-26T09:39:28.598Z,59.27
2022-11-26T09:42:34.862Z,59.14
2022-11-26T09:45:43.603Z,59.20
2022-11-26T09:48:32.363Z,59.08
2022-11-26T09:51:20.470Z,58.24
2022-11-26T09:54:06.451Z,57.69
2022-11-26T09:57:06.349Z,57.64
2022-11-26T09:59:54.034Z,57.96
2022-11-26T10:02:39.770Z,58.12
2022-11-26T10:05:40.211Z,58.54
2022-11-26T10:08:50.467Z,58.47
2022-11-26T10:11:54.773Z,58.72
2022-11-26T10:14:43.324Z,58.70
2022-11-26T10:17:56.937Z,58.82
2022-11-26T10:20:50.869Z,59.49
2022-11-26T10:23:47.823Z,58.01
2022-11-26T10:26:38.388Z,57.72
2022-11-26T10:29:35.312Z,57.71
2022-11-26T10:32:39.701Z,57.60
2022-11-26T10:35:29.135Z,57.50
2022-11-26T10:38:14.845Z,57.68
2022-11-26T10:40:59.975Z,57.83
2022-11-26T10:43:45.245Z,57.88
2022-11-26T10:46:35.975Z,58.08
2022-11-26T10:49:29.490Z,57.98
2022-11-26T10:52:24.792Z,58.11
2022-11-26T10:55:22.344Z,58.16
2022-11-26T10:58:16.682Z,57.97
2022-11-26T11:01:06.991Z,58.14
2022-11-26T11:04:13.092Z,58.16
2022-11-26T11:06:58.645Z,58.21
2022-11-26T11:09:44.346Z,58.32
2022-11-26T11:12:29.732Z,58.32
2022-11-26T11:15:18.014Z,58.18
2022-11-26T11:18:06.800Z,57.99
2022-11-26T11:20:55.927Z,57.92
2022-11-26T11:24:06.993Z,57.35
2022-11-26T11:26:53.492Z,56.78
2022-11-26T11:29:39.446Z,57.34
2022-11-26T11:32:42.835Z,57.18
2022-11-26T11:35:31.425Z,57.29
2022-11-26T11:38:29.188Z,57.57
2022-11-26T11:41:32.760Z,57.76
2022-11-26T11:44:30.328Z,57.81
2022-11-26T11:47:22.372Z,57.81
2022-11-26T11:50:23.174Z,57.68
2022-11-26T11:53:34.906Z,57.69
2022-11-26T11:56:38.551Z,57.59
2022-11-26T11:59:37.544Z,57.64
2022-11-26T12:02:48.013Z,57.57
2022-11-26T12:05:58.045Z,57.58
2022-11-26T12:09:19.318Z,57.50
2022-11-26T12:12:20.221Z,57.38
2022-11-26T12:15:14.507Z,57.19
2022-11-26T12:18:12.391Z,56.75
2022-11-26T12:21:11.884Z,56.15
2022-11-26T12:24:05.178Z,55.63
2022-11-26T12:27:01.627Z,55.74
2022-11-26T12:29:53.624Z,55.65
2022-11-26T12:32:53.956Z,55.37
2022-11-26T12:35:48.393Z,55.42
2022-11-26T12:38:45.198Z,55.25
2022-11-26T12:41:58.886Z,55.26
2022-11-26T12:44:49.486Z,55.51
2022-11-26T12:47:40.983Z,55.76
2022-11-26T12:50:38.184Z,56.16
2022-11-26T12:53:36.621Z,56.54
2022-11-26T12:56:29.229Z,56.90
2022-11-26T12:59:22.244Z,56.85
2022-11-26T13:02:33.252Z,56.79
2022-11-26T13:05:57.804Z,56.34
2022-11-26T13:09:07.823Z,55.80
2022-11-26T13:12:06.060Z,55.92
2022-11-26T13:15:20.525Z,56.22
2022-11-26T13:18:18.074Z,56.36
2022-11-26T13:21:31.449Z,56.45
2022-11-26T13:24:33.516Z,55.81
2022-11-26T13:27:43.922Z,55.61
2022-11-26T13:30:54.209Z,55.53
2022-11-26T13:34:00.925Z,56.03
2022-11-26T13:37:16.565Z,56.53
2022-11-26T13:40:39.105Z,56.38
2022-11-26T13:43:39.853Z,56.35
2022-11-26T13:46:48.905Z,56.38
2022-11-26T13:49:43.352Z,56.76
2022-11-26T13:52:41.740Z,56.97
2022-11-26T13:55:43.365Z,57.10
2022-11-26T13:58:43.545Z,56.69
2022-11-26T14:01:40.381Z,57.34
2022-11-26T14:04:26.037Z,57.11
2022-11-26T14:07:11.330Z,57.22
2022-11-26T14:10:00.202Z,57.49
2022-11-26T14:13:03.866Z,58.30
2022-11-26T14:15:53.422Z,59.00
2022-11-26T14:18:53.774Z,60.26
2022-11-26T14:21:59.289Z,60.81
2022-11-26T14:24:50.467Z,61.82
2022-11-26T14:27:40.789Z,61.37
2022-11-26T14:30:28.008Z,61.15
2022-11-26T14:33:24.052Z,61.04
2022-11-26T14:36:21.442Z,60.25
2022-11-26T14:39:11.198Z,60.62
2022-11-26T14:42:04.089Z,60.76
2022-11-26T14:45:17.739Z,60.94
2022-11-26T14:48:04.272Z,60.45
2022-11-26T14:50:50.221Z,59.71
2022-11-26T14:53:40.239Z,59.23
2022-11-26T14:56:26.576Z,59.01
2022-11-26T14:59:16.879Z,59.07
2022-11-26T15:02:02.786Z,59.27
2022-11-26T15:05:01.351Z,59.04
2022-11-26T15:07:57.061Z,59.25
2022-11-26T15:11:06.730Z,59.13
2022-11-26T15:13:53.036Z,59.13
2022-11-26T15:16:39.848Z,59.03
2022-11-26T15:19:26.927Z,59.12
2022-11-26T15:22:28.483Z,58.69
2022-11-26T15:25:29.928Z,58.30
2022-11-26T15:28:19.394Z,57.93
2022-11-26T15:31:08.529Z,57.60
2022-11-26T15:33:54.037Z,57.56
2022-11-26T15:36:39.696Z,57.46
2022-11-26T15:39:31.136Z,57.37
2022-11-26T15:42:28.332Z,57.46
2022-11-26T15:45:16.937Z,57.57
2022-11-26T15:48:04.048Z,57.46
2022-11-26T15:50:55.105Z,57.63
2022-11-26T15:53:46.537Z,57.31
2022-11-26T15:56:37.040Z,57.45
2022-11-26T15:59:26.033Z,57.35
2022-11-26T16:02:31.477Z,58.22
2022-11-26T16:05:29.573Z,58.51
2022-11-26T16:08:30.330Z,58.73
2022-11-26T16:11:20.992Z,58.83
2022-11-26T16:14:22.495Z,58.82
2022-11-26T16:17:17.470Z,58.85
2022-11-26T16:20:03.424Z,58.70
2022-11-26T16:22:51.707Z,58.42
2022-11-26T16:25:38.131Z,58.14
2022-11-26T16:28:23.805Z,58.21
2022-11-26T16:31:09.253Z,57.97
2022-11-26T16:33:55.419Z,58.50
2022-11-26T16:36:42.760Z,58.71
2022-11-26T16:39:32.116Z,58.82
2022-11-26T16:42:23.422Z,58.90
2022-11-26T16:45:11.425Z,58.59
2022-11-26T16:47:57.423Z,58.50
2022-11-26T16:50:43.306Z,58.21
2022-11-26T16:53:29.061Z,57.64
2022-11-26T16:56:29.028Z,58.02
2022-11-26T16:59:21.812Z,57.86
2022-11-26T17:02:18.756Z,57.94
2022-11-26T17:05:05.485Z,56.65
2022-11-26T17:07:59.215Z,56.51
2022-11-26T17:10:47.483Z,56.78
2022-11-26T17:13:33.335Z,56.94
2022-11-26T17:16:21.152Z,57.31
2022-11-26T17:19:12.436Z,57.25
2022-11-26T17:21:57.697Z,57.33
2022-11-26T17:24:43.139Z,56.96
2022-11-26T17:27:28.463Z,56.81
2022-11-26T17:30:17.967Z,56.56
2022-11-26T17:33:03.831Z,56.65
2022-11-26T17:35:49.398Z,56.52
2022-11-26T17:38:34.584Z,56.59
2022-11-26T17:41:20.617Z,56.64
2022-11-26T17:44:06.310Z,56.99
2022-11-26T17:47:15.940Z,56.55
2022-11-26T17:50:01.353Z,56.08
2022-11-26T17:52:47.275Z,56.23
2022-11-26T17:55:32.846Z,56.41
2022-11-26T17:58:18.789Z,56.40
2022-11-26T18:01:04.760Z,56.33
2022-11-26T18:03:52.550Z,56.60
2022-11-26T18:07:06.190Z,56.42
2022-11-26T18:09:51.855Z,56.17
2022-11-26T18:12:37.497Z,56.28
2022-11-26T18:15:29.164Z,56.24
2022-11-26T18:18:14.794Z,56.40
2022-11-26T18:21:00.275Z,56.38
2022-11-26T18:23:48.266Z,56.36
2022-11-26T18:26:33.937Z,56.53
2022-11-26T18:29:19.579Z,56.50
2022-11-26T18:32:06.999Z,56.56
2022-11-26T18:34:52.553Z,56.65
2022-11-26T18:37:40.159Z,57.16
2022-11-26T18:40:25.685Z,57.79
2022-11-26T18:43:10.969Z,58.87
2022-11-26T18:45:57.144Z,58.83
2022-11-26T18:48:49.866Z,58.85
2022-11-26T18:51:36.333Z,58.85
2022-11-26T18:54:21.870Z,58.78
2022-11-26T18:57:07.277Z,58.60
2022-11-26T18:59:52.507Z,58.19
2022-11-26T19:02:39.556Z,58.26
2022-11-26T19:05:26.480Z,57.62
2022-11-26T19:08:13.875Z,57.69
2022-11-26T19:11:00.193Z,57.51
2022-11-26T19:13:47.961Z,57.35
2022-11-26T19:16:34.320Z,57.24
2022-11-26T19:19:20.618Z,56.98
2022-11-26T19:22:06.070Z,56.54
2022-11-26T19:24:51.376Z,56.00
2022-11-26T19:27:36.603Z,55.73
2022-11-26T19:30:21.932Z,56.03
2022-11-26T19:33:07.924Z,56.33
2022-11-26T19:35:53.848Z,56.16
2022-11-26T19:38:39.607Z,56.30
2022-11-26T19:41:26.153Z,56.20
2022-11-26T19:44:11.874Z,55.99
2022-11-26T19:46:57.390Z,56.34
2022-11-26T19:49:42.731Z,55.99
2022-11-26T19:52:27.993Z,55.44
2022-11-26T19:55:13.252Z,55.55
2022-11-26T19:57:58.503Z,55.47
2022-11-26T20:00:43.668Z,55.46
2022-11-26T20:03:34.226Z,55.40
2022-11-26T20:06:26.733Z,54.95
2022-11-26T20:09:13.877Z,55.04
2022-11-26T20:11:59.310Z,54.79
2022-11-26T20:14:44.709Z,54.77
2022-11-26T20:17:30.002Z,54.70
2022-11-26T20:20:15.425Z,53.97
2022-11-26T20:23:00.929Z,52.84
2022-11-26T20:25:46.222Z,52.45
2022-11-26T20:28:31.720Z,52.17
2022-11-26T20:31:23.045Z,51.58
2022-11-26T20:34:09.025Z,51.69
2022-11-26T20:36:54.743Z,51.56
2022-11-26T20:39:40.449Z,51.18
2022-11-26T20:42:26.149Z,50.76
2022-11-26T20:45:13.155Z,50.90
2022-11-26T20:47:58.378Z,50.30
2022-11-26T20:50:43.555Z,49.95
2022-11-26T20:53:29.466Z,49.96
2022-11-26T20:56:14.837Z,49.92
2022-11-26T20:59:01.236Z,49.80
2022-11-26T21:01:46.607Z,49.26
2022-11-26T21:04:32.052Z,48.74
2022-11-26T21:07:18.512Z,48.57
2022-11-26T21:10:04.181Z,48.48
2022-11-26T21:12:49.730Z,48.14
2022-11-26T21:15:35.067Z,48.21
2022-11-26T21:18:20.586Z,47.52
2022-11-26T21:21:15.352Z,47.11
2022-11-26T21:24:04.596Z,47.08
2022-11-26T21:26:50.164Z,47.34
2022-11-26T21:29:35.349Z,46.91
2022-11-26T21:32:20.745Z,46.93
2022-11-26T21:35:06.510Z,46.94
2022-11-26T21:37:51.852Z,46.83
2022-11-26T21:40:37.341Z,46.65
2022-11-26T21:43:22.396Z,47.21
2022-11-26T21:46:10.029Z,47.66
2022-11-26T21:48:57.122Z,47.56
2022-11-26T21:51:42.530Z,47.04
2022-11-26T21:54:28.297Z,46.90
2022-11-26T21:57:13.521Z,46.79
2022-11-26T21:59:58.760Z,46.65
2022-11-26T22:02:44.005Z,46.63
2022-11-26T22:05:29.046Z,46.71
2022-11-26T22:08:14.441Z,46.53
2022-11-26T22:10:59.761Z,46.72
2022-11-26T22:13:45.552Z,46.79
2022-11-26T22:16:31.608Z,47.10
2022-11-26T22:19:17.343Z,47.21
2022-11-26T22:22:02.949Z,47.64
2022-11-26T22:24:49.312Z,47.57
2022-11-26T22:27:34.651Z,47.44
2022-11-26T22:30:20.740Z,47.60
2022-11-26T22:33:06.129Z,47.42
2022-11-26T22:35:51.508Z,47.74
2022-11-26T22:38:38.453Z,47.07
2022-11-26T22:41:24.370Z,47.52
2022-11-26T22:44:10.165Z,47.22
2022-11-26T22:46:55.811Z,47.09
2022-11-26T22:49:43.669Z,46.94
2022-11-26T22:52:29.018Z,47.11
2022-11-26T22:55:14.405Z,48.21
2022-11-26T22:57:59.723Z,46.99
2022-11-26T23:01:08.823Z,46.47
2022-11-26T23:03:55.631Z,47.11
2022-11-26T23:06:41.530Z,46.69
2022-11-26T23:09:26.962Z,46.71
2022-11-26T23:12:12.272Z,47.06
2022-11-26T23:14:57.583Z,46.98
2022-11-26T23:17:42.739Z,46.97
2022-11-26T23:20:28.097Z,46.84
2022-11-26T23:23:13.931Z,46.93
2022-11-26T23:26:02.069Z,46.49
2022-11-26T23:28:47.625Z,46.85
2022-11-26T23:31:36.184Z,46.36
2022-11-26T23:34:21.219Z,46.24
2022-11-26T23:37:06.555Z,46.99
2022-11-26T23:39:51.919Z,46.46
2022-11-26T23:42:37.242Z,46.02
2022-11-26T23:45:23.093Z,46.14
2022-11-26T23:48:08.470Z,45.66
2022-11-26T23:50:53.785Z,44.95
2022-11-26T23:53:41.534Z,44.76
2022-11-26T23:56:29.469Z,44.52
2022-11-26T23:59:15.101Z,44.80
